Time;durP1;ratioP1;P1;durP2;ratioP2;P2;SDS_P1;SDS_P2;PMS_P1;PMS_P2;Temp;Humidity;BMP_temperature;BMP_pressure;BME280_temperature;BME280_humidity;BME280_pressure;Samples;Min_cycle;Max_cycle;Signal;HPM_P1;HPM_P2
2021/05/30 00:00:40;;;;;;;7.57;5.38;;;17.00;99.90;;;16.82;82.66;101937.81;4103894;28;20070;-67
2021/05/30 00:02:41;;;;;;;6.03;5.15;;;17.00;99.90;;;16.85;82.67;101940.13;4103586;28;20034;-67
2021/05/30 00:04:42;;;;;;;6.97;5.57;;;17.10;99.90;;;16.77;83.05;101935.66;4103520;28;20597;-67
2021/05/30 00:06:43;;;;;;;6.75;5.15;;;17.00;99.90;;;16.78;82.99;101931.16;4103644;28;20063;-67
2021/05/30 00:08:44;;;;;;;5.35;4.85;;;17.00;99.90;;;16.75;83.10;101937.66;4105331;28;20035;-67
2021/05/30 00:10:45;;;;;;;5.53;4.63;;;17.00;99.90;;;16.71;83.38;101928.31;4119496;28;20035;-67
2021/05/30 00:12:47;;;;;;;5.57;4.72;;;17.00;99.90;;;16.50;84.21;101917.31;4119578;28;20058;-67
2021/05/30 00:14:49;;;;;;;6.65;4.68;;;16.90;99.90;;;16.52;84.75;101933.94;4119381;28;20070;-67
2021/05/30 00:16:50;;;;;;;9.73;6.07;;;16.80;99.90;;;16.64;83.65;101921.16;4119494;28;20149;-67
2021/05/30 00:18:50;;;;;;;6.15;5.00;;;16.80;99.90;;;16.61;83.85;101921.50;4119563;28;20041;-67
2021/05/30 00:20:51;;;;;;;9.13;6.07;;;16.90;99.90;;;16.64;84.17;101923.81;4119397;28;20027;-67
2021/05/30 00:22:53;;;;;;;7.72;5.20;;;16.90;99.90;;;16.61;84.38;101919.66;4119270;28;20462;-67
2021/05/30 00:24:54;;;;;;;5.72;4.57;;;16.90;99.90;;;16.53;84.97;101915.16;4119504;28;20486;-67
2021/05/30 00:26:55;;;;;;;8.60;5.68;;;16.80;99.90;;;16.43;85.37;101903.81;4119460;28;20082;-67
2021/05/30 00:28:56;;;;;;;8.55;5.38;;;16.80;99.90;;;16.44;85.70;101910.81;4119391;28;20035;-67
2021/05/30 00:30:57;;;;;;;9.00;6.07;;;16.80;99.90;;;16.46;85.75;101916.78;4119317;28;20406;-67
2021/05/30 00:32:58;;;;;;;9.27;6.25;;;16.70;99.90;;;16.56;85.00;101916.66;4119489;28;20066;-67
2021/05/30 00:34:59;;;;;;;9.45;6.00;;;16.80;99.90;;;16.44;85.53;101913.47;4119370;28;20042;-67
2021/05/30 00:37:00;;;;;;;5.88;4.90;;;16.70;99.90;;;16.39;86.07;101918.47;4119509;28;20022;-67
2021/05/30 00:39:01;;;;;;;6.80;5.18;;;16.70;99.90;;;16.36;86.32;101913.47;4119222;28;20477;-67
2021/05/30 00:41:02;;;;;;;7.72;5.57;;;16.70;99.90;;;16.43;85.85;101910.97;4119244;28;20030;-67
2021/05/30 00:43:03;;;;;;;6.70;4.82;;;16.70;99.90;;;16.34;86.34;101911.94;4119311;28;20030;-67
2021/05/30 00:45:06;;;;;;;8.13;5.13;;;16.70;99.90;;;16.25;86.63;101897.78;4119283;28;20503;-67
2021/05/30 00:47:07;;;;;;;6.82;6.13;;;16.70;99.90;;;16.32;85.82;101882.84;4119204;28;20035;-68
2021/05/30 00:49:07;;;;;;;8.38;6.40;;;16.70;99.90;;;16.53;85.71;101907.16;4119810;28;20077;-67
2021/05/30 00:51:09;;;;;;;6.65;5.75;;;16.70;99.90;;;16.50;85.97;101914.63;4122336;28;20031;-67
2021/05/30 00:53:10;;;;;;;9.25;6.72;;;16.70;99.90;;;16.50;86.25;101907.47;4122176;28;20027;-68
2021/05/30 00:55:13;;;;;;;9.93;5.97;;;16.70;99.90;;;16.48;86.00;101893.50;4121834;28;20406;-67
2021/05/30 00:57:13;;;;;;;11.20;6.78;;;16.70;99.90;;;16.46;86.50;101902.63;4122211;28;20074;-68
2021/05/30 00:59:14;;;;;;;10.57;6.35;;;16.70;99.90;;;16.49;86.50;101903.16;4122198;28;20027;-67
2021/05/30 01:01:15;;;;;;;6.07;5.47;;;16.80;99.90;;;16.37;86.92;101903.63;4122231;28;20402;-67
2021/05/30 01:03:16;;;;;;;6.75;5.50;;;16.70;99.90;;;16.36;87.45;101902.81;4122303;28;20027;-67
2021/05/30 01:05:18;;;;;;;7.13;5.15;;;16.70;99.90;;;16.37;87.75;101901.81;4121913;28;20059;-67
2021/05/30 01:07:19;;;;;;;9.38;6.60;;;16.70;99.90;;;16.39;87.06;101896.34;4122103;28;20031;-67
2021/05/30 01:09:20;;;;;;;10.43;5.80;;;16.70;99.90;;;16.42;87.21;101899.50;4122021;28;20037;-68
2021/05/30 01:11:23;;;;;;;6.55;5.30;;;16.70;99.90;;;16.37;87.68;101895.63;4121731;28;20034;-67
2021/05/30 01:13:26;;;;;;;10.65;6.88;;;16.70;99.90;;;16.42;87.23;101899.50;4121853;28;20027;-67
2021/05/30 01:15:30;;;;;;;8.30;6.10;;;16.70;99.90;;;16.37;87.54;101903.63;4121873;28;20454;-67
2021/05/30 01:17:31;;;;;;;;;;;16.70;99.90;;;16.27;87.88;101903.81;4121207;28;20518;-67
2021/05/30 01:19:34;;;;;;;12.45;6.22;;;16.70;99.90;;;16.38;87.93;101911.47;4120732;28;19957;-67
2021/05/30 01:21:35;;;;;;;8.13;5.18;;;16.70;99.90;;;16.35;87.69;101897.66;4121702;28;20054;-67
2021/05/30 01:23:36;;;;;;;6.75;5.03;;;16.70;99.90;;;16.39;87.88;101904.31;4122006;28;20058;-67
2021/05/30 01:25:37;;;;;;;6.57;5.50;;;16.70;99.90;;;16.39;87.52;101889.19;4121497;28;20027;-67
2021/05/30 01:27:39;;;;;;;9.40;6.38;;;16.70;99.90;;;16.43;87.77;101897.66;4121689;28;20035;-67
2021/05/30 01:29:40;;;;;;;8.52;5.93;;;16.70;99.90;;;16.37;87.78;101896.47;4121874;28;20026;-68
2021/05/30 01:31:41;;;;;;;6.00;4.90;;;16.70;99.90;;;16.42;87.94;101890.69;4121747;28;20027;-67
2021/05/30 01:33:43;;;;;;;6.63;5.47;;;16.70;99.90;;;16.40;87.97;101892.66;4121658;28;20038;-67
2021/05/30 01:35:45;;;;;;;6.15;5.30;;;16.70;99.90;;;16.34;88.31;101896.81;4121520;28;20465;-67
2021/05/30 01:37:48;;;;;;;9.82;6.35;;;16.70;99.90;;;16.30;88.64;101900.81;4121709;28;20101;-67
2021/05/30 01:39:49;;;;;;;6.73;5.47;;;16.60;99.90;;;16.30;88.95;101889.34;4121789;28;20031;-67
2021/05/30 01:41:50;;;;;;;8.68;5.90;;;16.60;99.90;;;16.28;88.82;101884.16;4121722;28;20302;-67
2021/05/30 01:43:51;;;;;;;8.05;6.78;;;16.60;99.90;;;16.26;88.81;101891.50;4121464;28;20086;-67
2021/05/30 01:45:52;;;;;;;6.13;5.45;;;16.60;99.90;;;16.31;88.83;101897.13;4121679;28;20035;-67
2021/05/30 01:47:53;;;;;;;6.55;5.68;;;16.60;99.90;;;16.25;88.94;101879.16;4121523;28;20038;-67
2021/05/30 01:49:54;;;;;;;9.32;7.20;;;16.60;99.90;;;16.32;88.17;101876.69;4121469;28;20019;-67
2021/05/30 01:51:55;;;;;;;7.03;6.10;;;16.60;99.90;;;16.34;88.17;101891.47;4121392;28;20030;-67
2021/05/30 01:54:06;;;;;;;8.07;6.50;;;16.60;99.90;;;16.32;88.45;101882.84;4121234;28;20034;-67
2021/05/30 01:58:09;;;;;;;7.75;5.75;;;16.60;99.90;;;16.34;88.53;101888.81;4121483;28;20027;-67
2021/05/30 02:00:11;;;;;;;9.43;7.00;;;16.60;99.90;;;16.34;88.29;101880.00;4119578;28;20110;-67
2021/05/30 02:02:12;;;;;;;9.13;6.10;;;16.60;99.90;;;16.37;88.13;101891.16;4121065;28;20035;-67
2021/05/30 02:04:13;;;;;;;8.90;6.10;;;16.60;99.90;;;16.34;88.11;101880.84;4119765;28;20053;-68
2021/05/30 02:06:17;;;;;;;7.32;6.45;;;16.60;99.90;;;16.40;88.01;101882.00;4121201;28;20031;-67
2021/05/30 02:08:19;;;;;;;10.23;5.70;;;16.60;99.90;;;16.32;88.36;101880.19;4121241;28;20031;-67
2021/05/30 02:10:23;;;;;;;8.57;5.82;;;16.60;99.90;;;16.26;88.85;101886.16;4120748;28;20035;-67
2021/05/30 02:12:25;;;;;;;8.73;6.10;;;16.60;99.90;;;16.17;88.92;101889.81;4121159;28;20031;-67
2021/05/30 02:14:26;;;;;;;10.27;6.40;;;16.50;99.90;;;16.13;89.17;101877.81;4121030;28;20038;-67
2021/05/30 02:16:29;;;;;;;6.07;5.40;;;16.50;99.90;;;16.11;89.17;101881.66;4120945;28;20113;-67
2021/05/30 02:18:30;;;;;;;8.82;6.85;;;16.50;99.90;;;16.34;87.79;101880.84;4121023;28;20049;-67
2021/05/30 02:20:40;;;;;;;6.88;5.43;;;16.50;99.90;;;16.34;87.69;101875.50;4120979;28;20399;-68
2021/05/30 02:22:41;;;;;;;9.05;6.57;;;16.60;99.90;;;16.32;88.16;101877.50;4120886;28;20053;-67
2021/05/30 02:24:45;;;;;;;7.70;5.90;;;16.60;99.90;;;16.16;88.77;101872.16;4120482;28;20034;-67
2021/05/30 02:26:46;;;;;;;6.97;5.60;;;16.50;99.90;;;16.20;89.49;101888.66;4120951;28;20031;-67
2021/05/30 02:28:47;;;;;;;8.02;6.68;;;16.50;99.90;;;16.25;88.42;101875.66;4120937;28;20419;-67
2021/05/30 02:30:48;;;;;;;9.57;6.15;;;16.50;99.90;;;16.19;89.11;101885.16;4120795;28;20035;-67
2021/05/30 02:32:49;;;;;;;9.23;6.65;;;16.50;99.90;;;16.20;88.95;101884.16;4120866;28;20062;-67
2021/05/30 02:34:50;;;;;;;11.27;7.45;;;16.50;99.90;;;16.28;88.12;101878.84;4120693;28;20035;-67
2021/05/30 02:36:51;;;;;;;9.38;6.97;;;16.50;99.90;;;16.38;86.84;101879.50;4120797;28;20034;-68
2021/05/30 02:38:52;;;;;;;7.65;6.15;;;16.60;99.90;;;16.27;87.64;101893.16;4120684;28;20419;-67
2021/05/30 02:40:53;;;;;;;6.65;6.00;;;16.50;99.90;;;16.19;88.21;101895.78;4120221;28;20027;-67
2021/05/30 02:42:54;;;;;;;10.98;7.15;;;16.50;99.90;;;16.24;87.88;101885.50;4120671;28;20066;-67
2021/05/30 02:44:55;;;;;;;8.23;6.20;;;16.50;99.90;;;16.18;88.09;101886.16;4120809;28;20026;-67
2021/05/30 02:46:56;;;;;;;8.25;7.03;;;16.50;99.90;;;16.31;86.11;101880.31;4120502;28;20109;-67
2021/05/30 02:48:57;;;;;;;7.78;6.18;;;16.60;99.90;;;16.25;87.05;101881.81;4119353;28;20030;-67
2021/05/30 02:50:59;;;;;;;7.07;5.70;;;16.60;99.90;;;16.19;87.78;101882.47;4120533;28;20086;-67
2021/05/30 02:53:00;;;;;;;7.47;6.07;;;16.50;99.90;;;16.14;87.96;101876.84;4119138;28;20113;-67
2021/05/30 02:55:01;;;;;;;7.80;6.65;;;16.60;99.90;;;16.07;88.28;101870.47;4120159;28;20522;-67
2021/05/30 02:57:02;;;;;;;6.80;5.70;;;16.40;99.90;;;16.01;88.45;101865.81;4120267;28;20081;-67
2021/05/30 02:59:03;;;;;;;6.65;5.90;;;16.50;99.90;;;16.10;88.42;101872.81;4119201;28;20340;-67
2021/05/30 03:01:04;;;;;;;5.68;5.05;;;16.40;99.90;;;16.10;88.84;101880.81;4120352;28;20403;-67
2021/05/30 03:03:05;;;;;;;7.10;6.40;;;16.40;99.90;;;16.08;88.91;101880.16;4120319;28;20026;-67
2021/05/30 03:05:08;;;;;;;13.75;6.97;;;16.40;99.90;;;16.16;87.81;101885.47;4119953;28;20050;-67
2021/05/30 03:07:09;;;;;;;7.05;5.95;;;16.40;99.90;;;16.10;87.80;101880.00;4120237;28;20027;-67
2021/05/30 03:09:10;;;;;;;7.35;6.15;;;16.40;99.90;;;16.03;87.81;101879.81;4120226;28;20035;-67
2021/05/30 03:11:11;;;;;;;9.32;5.82;;;16.40;99.90;;;15.99;88.69;101881.97;4119896;28;20089;-67
2021/05/30 03:13:12;;;;;;;8.07;5.78;;;16.40;99.90;;;16.06;88.83;101887.47;4118096;28;20526;-67
2021/05/30 03:15:14;;;;;;;7.40;5.63;;;16.40;99.90;;;16.01;88.75;101885.28;4120014;28;20090;-67
2021/05/30 03:17:15;;;;;;;6.82;6.00;;;16.30;99.90;;;15.94;89.66;101883.44;4120056;28;20030;-67
2021/05/30 03:19:16;;;;;;;6.00;5.35;;;16.30;99.90;;;15.98;89.67;101885.63;4119050;28;20593;-67
2021/05/30 03:21:17;;;;;;;8.82;5.82;;;16.30;99.90;;;16.02;89.15;101881.63;4119825;28;20038;-67
2021/05/30 03:23:18;;;;;;;8.20;5.45;;;16.30;99.90;;;16.00;89.18;101877.47;4120031;28;20094;-67
2021/05/30 03:25:19;;;;;;;5.57;4.97;;;16.40;99.90;;;16.00;89.14;101878.31;4119778;28;20125;-67
2021/05/30 03:27:20;;;;;;;5.95;5.10;;;16.30;99.90;;;16.03;88.83;101882.47;4120123;28;20042;-67
2021/05/30 03:29:21;;;;;;;7.50;6.72;;;16.30;99.90;;;16.10;88.37;101877.34;4119779;28;20034;-67
2021/05/30 03:31:22;;;;;;;6.18;5.55;;;16.40;99.90;;;16.06;85.43;101866.19;4119978;28;20037;-67
2021/05/30 03:33:23;;;;;;;7.57;5.75;;;16.40;99.90;;;16.04;86.39;101879.63;4120016;28;20398;-67
2021/05/30 03:35:24;;;;;;;7.13;5.10;;;16.40;99.90;;;16.03;86.96;101875.34;4119829;28;20030;-67
2021/05/30 03:37:25;;;;;;;7.38;5.57;;;16.40;99.90;;;16.07;86.98;101878.47;4119780;28;20027;-67
2021/05/30 03:39:27;;;;;;;7.03;5.15;;;16.40;99.90;;;15.97;87.14;101868.00;4119818;28;20030;-67
2021/05/30 03:41:40;;;;;;;8.73;5.63;;;16.40;99.90;;;16.01;87.64;101873.81;4120015;28;20526;-67
2021/05/30 03:43:41;;;;;;;6.93;5.20;;;16.30;99.90;;;15.99;88.11;101875.81;4118534;28;20026;-67
2021/05/30 03:45:43;;;;;;;8.23;4.88;;;16.30;99.90;;;15.95;87.95;101872.63;4119689;28;20062;-67
2021/05/30 03:47:43;;;;;;;7.10;5.78;;;16.30;99.90;;;15.88;88.27;101873.47;4119815;28;20027;-67
2021/05/30 03:49:44;;;;;;;5.60;4.85;;;16.30;99.90;;;15.92;87.78;101878.28;4119808;28;20042;-67
2021/05/30 03:51:45;;;;;;;7.13;5.50;;;16.30;99.90;;;15.92;87.69;101888.09;4119711;28;20082;-67
2021/05/30 03:53:46;;;;;;;6.60;5.40;;;16.30;99.90;;;15.90;87.76;101892.75;4119667;28;20038;-67
2021/05/30 03:55:48;;;;;;;5.75;4.70;;;16.30;99.90;;;15.87;88.03;101893.91;4119474;28;20031;-67
2021/05/30 03:57:49;;;;;;;11.70;5.78;;;16.20;99.90;;;15.89;86.47;101886.59;4119837;28;20450;-67
2021/05/30 03:59:50;;;;;;;6.47;4.50;;;16.20;99.90;;;15.95;86.28;101890.41;4118448;28;20022;-67
2021/05/30 04:01:51;;;;;;;5.05;4.57;;;16.30;99.90;;;15.96;86.58;101886.78;4119302;28;20442;-67
2021/05/30 04:03:52;;;;;;;8.57;4.22;;;16.20;99.90;;;15.95;86.88;101887.75;4119543;28;20055;-67
2021/05/30 04:05:53;;;;;;;10.55;5.55;;;16.20;99.90;;;15.98;87.78;101888.28;4119500;28;20106;-67
2021/05/30 04:07:54;;;;;;;7.18;5.28;;;16.20;99.90;;;16.02;86.77;101886.97;4119558;28;20035;-67
2021/05/30 04:09:55;;;;;;;6.53;4.93;;;16.30;99.90;;;15.97;86.94;101897.28;4119154;28;20039;-67
2021/05/30 04:11:57;;;;;;;6.20;4.93;;;16.30;99.90;;;15.94;87.62;101894.09;4119673;28;20066;-67
2021/05/30 04:13:58;;;;;;;7.25;5.03;;;16.30;99.90;;;15.94;87.04;101899.41;4119753;28;20553;-67
2021/05/30 04:15:59;;;;;;;5.63;5.03;;;16.20;99.90;;;15.95;87.45;101898.41;4119476;28;20059;-67
2021/05/30 04:18:01;;;;;;;5.93;5.18;;;16.20;99.90;;;16.10;85.13;101898.63;4119389;28;20114;-67
2021/05/30 04:20:04;;;;;;;6.57;5.78;;;16.30;99.90;;;16.12;83.49;101886.81;4119617;28;20026;-67
2021/05/30 04:22:05;;;;;;;7.20;5.00;;;16.40;99.90;;;16.17;84.17;101891.63;4119471;28;20091;-67
2021/05/30 04:24:07;;;;;;;4.95;3.95;;;16.40;99.90;;;16.16;85.22;101895.31;4121259;28;20274;-67
2021/05/30 04:26:08;;;;;;;8.25;6.18;;;16.40;99.90;;;16.12;83.65;101896.63;4122419;28;20031;-67
2021/05/30 04:28:09;;;;;;;7.28;5.45;;;16.40;99.90;;;16.17;83.17;101900.47;4122681;28;20045;-67
2021/05/30 04:30:13;;;;;;;6.90;4.82;;;16.40;99.90;;;16.04;84.16;101897.44;4122551;28;20061;-67
2021/05/30 04:32:14;;;;;;;7.30;4.93;;;16.40;99.90;;;16.09;83.46;101895.13;4122502;28;20462;-67
2021/05/30 04:34:14;;;;;;;5.95;4.55;;;16.40;99.90;;;16.10;84.04;101891.44;4122245;28;20035;-67
2021/05/30 04:36:16;;;;;;;7.03;4.80;;;16.40;99.90;;;16.09;83.86;101892.47;4122569;28;20019;-67
2021/05/30 04:38:18;;;;;;;6.22;5.00;;;16.40;99.90;;;16.06;83.89;101895.47;4122451;28;20031;-67
2021/05/30 04:40:23;;;;;;;4.45;4.05;;;16.40;99.90;;;16.03;84.61;101899.28;4122117;28;20019;-67
2021/05/30 04:42:24;;;;;;;6.50;4.13;;;16.40;99.90;;;16.11;84.23;101897.63;4122211;28;20049;-67
2021/05/30 04:44:26;;;;;;;8.73;5.10;;;16.40;99.90;;;16.23;81.15;101902.47;4122621;28;20114;-67
2021/05/30 04:46:27;;;;;;;6.43;5.10;;;16.40;99.90;;;16.13;82.12;101900.97;4105250;28;20024;-67
2021/05/30 04:48:28;;;;;;;5.70;5.07;;;16.40;99.90;;;16.08;82.73;101898.78;4122322;28;20506;-67
2021/05/30 04:50:29;;;;;;;5.35;4.85;;;16.40;99.90;;;16.12;82.01;101897.47;4122056;28;20434;-67
2021/05/30 04:52:30;;;;;;;4.75;4.20;;;16.50;99.90;;;16.14;82.94;101902.63;4122251;28;20031;-67
2021/05/30 04:54:31;;;;;;;6.10;5.10;;;16.50;99.90;;;16.11;81.36;101892.28;4121446;28;20073;-67
2021/05/30 04:56:32;;;;;;;5.50;4.10;;;16.50;99.90;;;16.15;81.99;101896.31;4121959;28;20037;-67
2021/05/30 04:58:33;;;;;;;4.75;4.25;;;16.50;99.90;;;16.12;82.67;101897.47;4121904;28;20031;-67
2021/05/30 05:00:34;;;;;;;6.22;4.97;;;16.50;99.90;;;16.13;82.17;101898.31;4122276;28;20110;-67
2021/05/30 05:02:35;;;;;;;8.90;4.72;;;16.50;99.90;;;16.12;82.21;101894.81;4113436;28;20031;-67
2021/05/30 05:04:36;;;;;;;7.47;5.57;;;16.50;99.90;;;16.24;78.94;101896.16;4121759;28;20047;-67
2021/05/30 05:06:37;;;;;;;7.57;5.03;;;16.60;99.90;;;16.18;80.29;101899.47;4121753;28;20054;-67
2021/05/30 05:08:38;;;;;;;5.85;5.20;;;16.60;99.90;;;16.22;80.53;101905.31;4121944;28;20027;-67
2021/05/30 05:10:39;;;;;;;6.70;5.47;;;16.50;99.90;;;16.33;79.12;101903.16;4121680;28;20031;-67
2021/05/30 05:12:40;;;;;;;7.40;4.97;;;16.60;99.90;;;16.31;79.40;101907.78;4121867;28;20059;-67
2021/05/30 05:14:41;;;;;;;9.75;6.03;;;16.70;99.90;;;16.41;78.28;101897.81;4121767;28;20073;-67
2021/05/30 05:16:42;;;;;;;4.47;4.03;;;16.70;99.90;;;16.41;79.10;101902.31;4121845;28;20031;-67
2021/05/30 05:18:44;;;;;;;7.03;4.60;;;16.70;99.90;;;16.33;79.40;101894.31;4121775;28;20034;-67
2021/05/30 05:20:45;;;;;;;7.22;4.63;;;16.70;99.90;;;16.43;78.47;101902.97;4121714;28;20058;-67
2021/05/30 05:22:46;;;;;;;5.15;4.63;;;16.70;99.90;;;16.34;79.36;101890.66;4121470;28;20390;-67
2021/05/30 05:24:47;;;;;;;5.45;4.30;;;16.70;99.90;;;16.39;79.66;101897.16;4121474;28;20038;-67
2021/05/30 05:26:48;;;;;;;6.35;4.65;;;16.80;99.90;;;16.36;80.15;101897.50;4121630;28;20067;-67
2021/05/30 05:28:49;;;;;;;7.32;4.20;;;16.70;99.90;;;16.38;80.33;101886.66;4121720;28;20038;-67
2021/05/30 05:30:54;;;;;;;5.63;4.18;;;16.70;99.90;;;16.41;80.42;101886.34;4121529;28;20092;-67
2021/05/30 05:32:56;;;;;;;6.18;4.53;;;16.80;99.90;;;16.42;80.59;101899.50;4121495;28;20027;-67
2021/05/30 05:34:57;;;;;;;6.68;4.63;;;16.80;99.90;;;16.36;80.86;101892.19;4120805;28;20066;-67
2021/05/30 05:36:58;;;;;;;5.22;4.40;;;16.80;99.90;;;16.48;78.72;101892.69;4121589;28;20035;-67
2021/05/30 05:38:59;;;;;;;7.05;4.57;;;16.80;99.90;;;16.33;79.14;101873.88;4121631;28;20031;-67
2021/05/30 05:41:00;;;;;;;5.38;4.03;;;16.80;99.90;;;16.39;79.01;101894.50;4121055;28;20390;-67
2021/05/30 05:43:01;;;;;;;9.15;4.75;;;16.80;99.90;;;16.34;79.28;101874.66;4121462;28;20050;-67
2021/05/30 05:45:04;;;;;;;5.88;4.53;;;16.80;99.90;;;16.49;77.31;101884.50;4121384;28;20506;-67
2021/05/30 05:47:06;;;;;;;5.20;3.95;;;16.90;99.90;;;16.45;78.04;101877.88;4121272;28;20031;-67
2021/05/30 05:49:07;;;;;;;4.90;4.30;;;16.90;99.90;;;16.41;78.55;101889.84;4121316;28;20081;-67
2021/05/30 05:51:08;;;;;;;4.20;3.70;;;16.90;99.90;;;16.45;78.99;101890.34;4121377;28;20030;-67
2021/05/30 05:53:09;;;;;;;6.22;5.30;;;16.90;99.90;;;16.47;78.83;101897.16;4121255;28;20058;-67
2021/05/30 05:55:11;;;;;;;5.43;3.90;;;16.90;99.90;;;16.50;78.22;101894.16;4120982;28;20506;-67
2021/05/30 05:57:13;;;;;;;7.38;5.00;;;16.90;99.90;;;16.66;76.36;101900.53;4121190;28;20034;-67
2021/05/30 05:59:14;;;;;;;6.70;5.05;;;17.00;99.90;;;16.67;75.86;101887.03;4121289;28;20398;-67
2021/05/30 06:01:15;;;;;;;5.35;3.90;;;17.00;99.90;;;16.64;75.84;101886.53;4121058;28;20031;-67
2021/05/30 06:03:16;;;;;;;5.65;4.28;;;17.00;99.90;;;16.58;76.35;101877.38;4121302;28;20085;-67
2021/05/30 06:05:23;;;;;;;6.45;4.40;;;17.00;99.90;;;16.62;76.84;101888.53;4120872;28;20050;-67
2021/05/30 06:07:24;;;;;;;5.55;4.47;;;17.10;99.90;;;16.63;77.09;101880.38;4121033;28;20026;-67
2021/05/30 06:09:25;;;;;;;4.88;3.72;;;17.00;99.90;;;16.69;76.44;101870.88;4120708;28;20037;-67
2021/05/30 06:11:26;;;;;;;6.60;4.65;;;17.10;99.90;;;16.90;74.87;101879.19;4120911;28;20022;-67
2021/05/30 06:13:27;;;;;;;4.57;3.88;;;17.30;99.90;;;16.87;75.87;101882.19;4121023;28;20113;-67
2021/05/30 06:15:28;;;;;;;5.47;4.10;;;17.20;99.90;;;16.79;74.07;101880.34;4120890;28;20034;-67
2021/05/30 06:17:29;;;;;;;4.70;4.03;;;17.30;99.90;;;16.90;73.97;101882.69;4120857;28;20035;-67
2021/05/30 06:19:31;;;;;;;4.03;3.60;;;17.30;99.90;;;17.00;74.07;101885.13;4120835;28;20053;-67
2021/05/30 06:21:32;;;;;;;6.50;4.35;;;17.40;99.90;;;17.04;74.42;101881.16;4120814;28;20033;-67
2021/05/30 06:23:33;;;;;;;6.78;3.80;;;17.50;99.90;;;17.08;72.38;101871.81;4120959;28;20050;-67
2021/05/30 06:25:35;;;;;;;7.82;4.90;;;17.50;99.90;;;16.94;72.62;101869.81;4120480;28;20053;-67
2021/05/30 06:27:36;;;;;;;6.50;4.28;;;17.60;99.90;;;17.10;71.73;101881.28;4120649;28;20047;-67
2021/05/30 06:29:37;;;;;;;5.88;4.07;;;17.60;99.90;;;17.08;70.66;101875.28;4120604;28;20034;-67
2021/05/30 06:31:38;;;;;;;5.95;4.20;;;17.60;99.90;;;17.19;71.48;101878.59;4120723;28;20038;-67
2021/05/30 06:33:39;;;;;;;7.70;4.22;;;17.70;99.90;;;17.23;71.29;101893.25;4120601;28;20031;-67
2021/05/30 06:35:42;;;;;;;6.55;3.60;;;17.70;99.90;;;17.20;71.73;101889.09;4120660;28;20031;-67
2021/05/30 06:37:43;;;;;;;7.10;4.57;;;17.70;99.90;;;17.25;68.92;101878.75;4120357;28;20063;-67
2021/05/30 06:39:44;;;;;;;6.70;4.65;;;17.80;99.90;;;17.27;69.55;101887.41;4120337;28;20033;-67
2021/05/30 06:41:45;;;;;;;6.82;4.65;;;17.80;99.90;;;17.40;69.29;101885.03;4120516;28;20026;-67
2021/05/30 06:43:50;;;;;;;5.70;4.18;;;18.00;99.90;;;17.50;68.79;101896.31;4120559;28;20046;-67
2021/05/30 06:45:51;;;;;;;4.35;3.65;;;18.10;99.90;;;17.54;69.03;101888.81;4120968;28;20506;-67
2021/05/30 06:47:53;;;;;;;7.72;4.85;;;18.10;99.90;;;17.70;66.90;101886.09;4120541;28;20041;-67
2021/05/30 06:49:55;;;;;;;5.78;4.60;;;18.30;99.90;;;17.79;66.65;101892.22;4120538;28;20114;-67
2021/05/30 06:51:56;;;;;;;5.68;4.50;;;18.40;99.90;;;17.68;66.72;101872.91;4120585;28;20094;-67
2021/05/30 06:54:00;;;;;;;6.03;4.22;;;18.40;99.90;;;17.90;67.90;101886.47;4120492;28;20062;-67
2021/05/30 06:56:01;;;;;;;6.28;4.20;;;18.50;99.90;;;17.90;68.72;101881.13;4120034;28;20073;-67
2021/05/30 06:58:02;;;;;;;5.13;4.10;;;18.70;99.90;;;18.00;68.08;101892.44;4120371;28;20386;-68
2021/05/30 07:00:05;;;;;;;5.30;4.30;;;18.80;99.90;;;18.12;65.76;101878.50;4120617;28;20462;-68
2021/05/30 07:02:06;;;;;;;6.63;4.90;;;18.90;99.90;;;18.13;64.86;101879.31;4120241;28;20055;-67
2021/05/30 07:04:07;;;;;;;6.13;4.47;;;19.10;99.90;;;18.15;65.92;101872.81;4120128;28;20108;-67
2021/05/30 07:06:09;;;;;;;5.95;4.15;;;19.20;99.90;;;18.18;63.93;101875.13;4120261;28;20418;-68
2021/05/30 07:08:09;;;;;;;5.57;3.97;;;19.30;99.90;;;18.28;61.86;101874.06;4120156;28;20027;-67
2021/05/30 07:10:12;;;;;;;5.43;4.53;;;19.40;99.90;;;18.22;64.78;101875.56;4119857;28;20502;-67
2021/05/30 07:12:13;;;;;;;5.50;4.22;;;19.40;99.90;;;18.10;65.00;101871.66;4120240;28;20029;-67
2021/05/30 07:14:14;;;;;;;6.07;4.50;;;19.50;99.90;;;18.04;64.04;101867.06;4120243;28;20490;-67
2021/05/30 07:16:15;;;;;;;5.10;3.65;;;19.40;99.90;;;18.44;65.00;101873.91;4118742;28;20117;-67
2021/05/30 07:18:16;;;;;;;6.35;3.95;;;19.50;99.90;;;18.64;61.75;101883.13;4119937;28;20023;-67
2021/05/30 07:20:17;;;;;;;5.90;4.47;;;19.70;99.90;;;18.72;61.31;101878.56;4120195;28;20030;-67
2021/05/30 07:22:18;;;;;;;5.00;4.25;;;19.80;99.90;;;18.72;61.26;101875.88;4120012;28;20050;-68
2021/05/30 07:24:19;;;;;;;5.65;4.60;;;19.90;99.90;;;18.57;60.80;101885.69;4119619;28;20030;-67
2021/05/30 07:26:20;;;;;;;7.20;4.30;;;19.90;99.70;;;18.62;61.38;101871.78;4119853;28;20394;-67
2021/05/30 07:28:22;;;;;;;6.07;4.20;;;19.90;99.90;;;18.77;62.58;101876.16;4119998;28;20569;-67
2021/05/30 07:30:24;;;;;;;5.00;3.83;;;19.90;99.90;;;18.92;61.59;101869.97;4119756;28;20480;-67
2021/05/30 07:32:25;;;;;;;4.65;4.00;;;20.00;99.90;;;19.27;61.37;101877.28;4119718;28;20031;-67
2021/05/30 07:34:26;;;;;;;5.97;4.32;;;20.20;99.90;;;18.90;60.12;101880.03;4119525;28;20088;-67
2021/05/30 07:36:29;;;;;;;4.50;3.60;;;20.30;99.10;;;19.13;60.81;101875.44;4119988;28;20033;-67
2021/05/30 07:38:30;;;;;;;5.25;4.57;;;20.40;99.20;;;19.37;61.23;101877.84;4119886;28;20106;-67
2021/05/30 07:40:32;;;;;;;5.95;3.95;;;20.50;99.90;;;19.27;60.31;101883.47;4119797;28;20517;-67
2021/05/30 07:42:33;;;;;;;7.18;3.60;;;20.60;99.20;;;19.48;58.67;101881.91;4119676;28;20065;-68
2021/05/30 07:44:34;;;;;;;7.13;3.88;;;20.70;98.50;;;19.31;59.63;101873.22;4119665;28;20031;-67
2021/05/30 07:46:35;;;;;;;4.45;3.70;;;20.80;98.60;;;19.60;58.97;101867.88;4119585;28;20022;-67
2021/05/30 07:48:37;;;;;;;4.18;3.63;;;20.80;98.70;;;19.55;58.28;101875.63;4119684;28;20510;-67
2021/05/30 07:50:38;;;;;;;4.50;3.83;;;20.90;98.20;;;19.45;58.97;101874.25;4119218;28;20030;-68
2021/05/30 07:52:40;;;;;;;6.47;3.72;;;20.90;98.10;;;19.24;57.55;101872.28;4118374;28;20027;-67
2021/05/30 07:54:41;;;;;;;6.30;3.67;;;20.70;97.20;;;19.63;60.91;101872.84;4119390;28;20019;-68
2021/05/30 07:56:42;;;;;;;5.15;3.80;;;20.80;99.60;;;19.87;58.82;101866.31;4118371;28;20534;-68
2021/05/30 07:58:43;;;;;;;4.35;3.33;;;21.10;98.40;;;19.56;57.75;101866.56;4122421;28;20380;-68
2021/05/30 08:00:44;;;;;;;4.75;3.53;;;21.30;97.30;;;19.70;56.74;101870.25;4124724;28;20077;-68
2021/05/30 08:02:47;;;;;;;4.35;3.85;;;21.30;96.70;;;20.13;58.32;101871.94;4107544;28;20031;-68
2021/05/30 08:04:47;;;;;;;5.03;3.53;;;21.40;98.10;;;20.33;56.05;101862.31;4105981;28;20051;-68
2021/05/30 08:06:48;;;;;;;5.18;4.18;;;21.50;96.70;;;20.29;57.71;101866.38;4121043;28;20551;-68
2021/05/30 08:08:49;;;;;;;6.20;3.65;;;21.60;97.40;;;20.43;55.81;101868.16;4110820;28;20031;-68
2021/05/30 08:10:50;;;;;;;4.20;3.13;;;21.70;96.60;;;20.19;57.78;101870.38;4124692;28;20070;-68
2021/05/30 08:12:53;;;;;;;4.55;3.15;;;21.60;97.40;;;20.20;57.02;101872.00;4124842;28;20046;-68
2021/05/30 08:14:54;;;;;;;4.18;3.15;;;21.60;96.80;;;20.34;57.48;101871.13;4124549;28;20183;-68
2021/05/30 08:16:55;;;;;;;4.32;2.95;;;21.60;97.20;;;20.45;57.49;101870.66;4124875;28;20483;-68
2021/05/30 08:18:56;;;;;;;5.00;3.10;;;21.60;97.30;;;20.47;57.41;101865.91;4124998;28;20494;-68
2021/05/30 08:20:57;;;;;;;4.93;3.40;;;21.60;97.20;;;20.59;56.83;101867.03;4124771;28;20026;-68
2021/05/30 08:22:58;;;;;;;5.50;2.75;;;21.70;97.00;;;20.45;56.18;101867.13;4124440;28;20093;-68
2021/05/30 08:24:59;;;;;;;4.35;2.60;;;21.80;96.40;;;20.48;54.78;101856.84;4124819;28;20039;-69
2021/05/30 08:27:00;;;;;;;3.20;2.90;;;21.90;95.50;;;20.71;55.85;101853.94;4124654;28;20031;-68